createdAt,value
2023-05-10T00:01:36.659Z,100.00
2023-05-10T00:04:49.035Z,100.00
2023-05-10T00:08:01.079Z,100.00
2023-05-10T00:11:13.305Z,100.00
2023-05-10T00:14:26.081Z,100.00
2023-05-10T00:17:38.326Z,100.00
2023-05-10T00:20:50.865Z,100.00
2023-05-10T00:24:03.179Z,100.00
2023-05-10T00:27:15.754Z,100.00
2023-05-10T00:30:29.240Z,100.00
2023-05-10T00:33:41.556Z,100.00
2023-05-10T00:36:54.939Z,100.00
2023-05-10T00:40:07.059Z,100.00
2023-05-10T00:43:19.545Z,100.00
2023-05-10T00:46:34.020Z,100.00
2023-05-10T00:49:47.348Z,100.00
2023-05-10T00:52:59.506Z,100.00
2023-05-10T00:56:12.367Z,100.00
2023-05-10T00:59:25.403Z,100.00
2023-05-10T01:02:38.024Z,100.00
2023-05-10T01:05:50.324Z,100.00
2023-05-10T01:09:04.663Z,100.00
2023-05-10T01:12:17.115Z,100.00
2023-05-10T01:15:29.662Z,100.00
2023-05-10T01:18:44.995Z,100.00
2023-05-10T01:22:08.657Z,100.00
2023-05-10T01:26:07.560Z,100.00
2023-05-10T01:29:49.019Z,100.00
2023-05-10T01:33:06.592Z,100.00
2023-05-10T01:36:27.243Z,100.00
2023-05-10T01:39:45.052Z,100.00
2023-05-10T01:43:03.838Z,100.00
2023-05-10T01:46:22.063Z,100.00
2023-05-10T01:49:37.903Z,100.00
2023-05-10T01:52:55.773Z,100.00
2023-05-10T01:56:09.924Z,100.00
2023-05-10T01:59:26.536Z,100.00
2023-05-10T02:02:43.532Z,100.00
2023-05-10T02:05:57.990Z,100.00
2023-05-10T02:09:12.058Z,100.00
2023-05-10T02:12:25.291Z,100.00
2023-05-10T02:15:39.742Z,100.00
2023-05-10T02:18:53.293Z,100.00
2023-05-10T02:22:06.604Z,100.00
2023-05-10T02:25:21.323Z,100.00
2023-05-10T02:28:35.228Z,100.00
2023-05-10T02:31:48.797Z,100.00
2023-05-10T02:35:01.813Z,100.00
2023-05-10T02:38:14.749Z,100.00
2023-05-10T02:41:28.215Z,100.00
2023-05-10T02:44:42.789Z,100.00
2023-05-10T02:47:55.672Z,100.00
2023-05-10T02:51:12.714Z,100.00
2023-05-10T02:54:29.846Z,100.00
2023-05-10T02:57:46.718Z,100.00
2023-05-10T03:00:59.019Z,100.00
2023-05-10T03:04:11.801Z,100.00
2023-05-10T03:07:24.609Z,100.00
2023-05-10T03:10:39.385Z,100.00
2023-05-10T03:13:59.516Z,100.00
2023-05-10T03:17:17.255Z,100.00
2023-05-10T03:20:37.139Z,100.00
2023-05-10T03:23:56.410Z,100.00
2023-05-10T03:27:09.549Z,100.00
2023-05-10T03:30:23.455Z,100.00
2023-05-10T03:33:36.059Z,100.00
2023-05-10T03:36:48.513Z,100.00
2023-05-10T03:40:00.972Z,100.00
2023-05-10T03:43:14.662Z,100.00
2023-05-10T03:46:27.723Z,100.00
2023-05-10T03:49:40.100Z,100.00
2023-05-10T03:52:54.114Z,100.00
2023-05-10T03:56:06.760Z,100.00
2023-05-10T03:59:19.380Z,100.00
2023-05-10T04:02:32.044Z,100.00
2023-05-10T04:05:46.306Z,100.00
2023-05-10T04:09:00.828Z,100.00
2023-05-10T04:12:13.965Z,100.00
2023-05-10T04:15:26.618Z,100.00
2023-05-10T04:18:38.729Z,100.00
2023-05-10T04:21:51.154Z,100.00
2023-05-10T04:25:03.388Z,100.00
2023-05-10T04:28:15.405Z,100.00
2023-05-10T04:31:28.160Z,100.00
2023-05-10T04:34:40.724Z,100.00
2023-05-10T04:37:52.690Z,100.00
2023-05-10T04:41:14.583Z,100.00
2023-05-10T04:44:26.771Z,100.00
2023-05-10T04:47:39.018Z,100.00
2023-05-10T04:50:51.231Z,100.00
2023-05-10T04:54:06.656Z,100.00
2023-05-10T04:57:17.566Z,100.00
2023-05-10T05:00:30.174Z,100.00
2023-05-10T05:03:43.717Z,99.92
2023-05-10T05:06:56.600Z,99.47
2023-05-10T05:10:09.035Z,99.23
2023-05-10T05:13:24.633Z,100.00
2023-05-10T05:16:39.129Z,99.21
2023-05-10T05:19:51.837Z,99.02
2023-05-10T05:23:04.002Z,97.81
2023-05-10T05:26:16.165Z,95.42
2023-05-10T05:29:28.299Z,94.00
2023-05-10T05:32:40.502Z,91.59
2023-05-10T05:35:53.027Z,90.38
2023-05-10T05:39:05.361Z,87.47
2023-05-10T05:42:19.960Z,86.72
2023-05-10T05:45:32.587Z,86.99
2023-05-10T05:48:45.064Z,87.21
2023-05-10T05:51:57.326Z,87.55
2023-05-10T05:55:10.784Z,88.46
2023-05-10T05:58:22.956Z,84.56
2023-05-10T06:01:35.233Z,85.15
2023-05-10T06:04:47.699Z,84.91
2023-05-10T06:08:00.131Z,84.29
2023-05-10T06:11:12.540Z,83.75
2023-05-10T06:14:25.559Z,85.02
2023-05-10T06:17:37.862Z,83.44
2023-05-10T06:20:51.592Z,81.39
2023-05-10T06:24:04.325Z,80.50
2023-05-10T06:27:17.520Z,78.75
2023-05-10T06:30:30.608Z,79.14
2023-05-10T06:33:42.980Z,76.50
2023-05-10T06:36:55.493Z,75.67
2023-05-10T06:40:08.006Z,73.07
2023-05-10T06:43:20.145Z,71.87
2023-05-10T06:46:32.332Z,70.23
2023-05-10T06:49:44.768Z,67.50
2023-05-10T06:52:57.014Z,67.54
2023-05-10T06:56:10.077Z,65.73
2023-05-10T06:59:22.945Z,65.87
2023-05-10T07:02:35.357Z,64.20
2023-05-10T07:05:47.924Z,62.77
2023-05-10T07:09:00.389Z,60.28
2023-05-10T07:12:15.435Z,60.35
2023-05-10T07:15:29.359Z,60.53
2023-05-10T07:18:41.810Z,59.75
2023-05-10T07:21:54.175Z,59.42
2023-05-10T07:25:06.800Z,59.52
2023-05-10T07:28:19.483Z,57.35
2023-05-10T07:31:32.383Z,57.59
2023-05-10T07:34:45.586Z,57.42
2023-05-10T07:37:58.852Z,57.72
2023-05-10T07:41:12.288Z,54.93
2023-05-10T07:44:24.762Z,54.27
2023-05-10T07:47:36.863Z,54.41
2023-05-10T07:50:49.001Z,54.92
2023-05-10T07:54:01.447Z,54.41
2023-05-10T07:57:12.588Z,51.84
2023-05-10T08:00:28.080Z,51.82
2023-05-10T08:03:40.328Z,51.79
2023-05-10T08:06:52.605Z,50.53
2023-05-10T08:10:04.759Z,49.45
2023-05-10T08:13:16.882Z,47.28
2023-05-10T08:16:30.204Z,47.37
2023-05-10T08:19:42.601Z,47.89
2023-05-10T08:22:55.234Z,45.27
2023-05-10T08:26:07.822Z,43.94
2023-05-10T08:29:20.440Z,43.20
2023-05-10T08:32:32.897Z,44.58
2023-05-10T08:35:48.326Z,40.99
2023-05-10T08:39:01.220Z,41.63
2023-05-10T08:42:16.338Z,41.62
2023-05-10T08:45:30.290Z,41.45
2023-05-10T08:48:44.850Z,39.24
2023-05-10T08:52:01.442Z,40.05
2023-05-10T08:55:12.590Z,38.53
2023-05-10T08:58:24.651Z,38.45
2023-05-10T09:01:38.573Z,38.11
2023-05-10T09:04:50.880Z,36.00
2023-05-10T09:08:03.813Z,36.19
2023-05-10T09:11:16.810Z,36.74
2023-05-10T09:14:30.516Z,35.35
2023-05-10T09:17:43.621Z,36.37
2023-05-10T09:20:56.121Z,35.36
2023-05-10T09:24:13.022Z,35.69
2023-05-10T09:27:33.245Z,35.36
2023-05-10T09:30:45.575Z,35.09
2023-05-10T09:33:58.831Z,34.82
2023-05-10T09:37:11.896Z,33.25
2023-05-10T09:40:26.062Z,34.11
2023-05-10T09:43:47.494Z,35.26
2023-05-10T09:47:00.200Z,34.42
2023-05-10T09:50:14.732Z,33.08
2023-05-10T09:53:26.697Z,33.56
2023-05-10T09:56:45.570Z,35.01
2023-05-10T09:59:59.584Z,34.06
2023-05-10T10:03:13.233Z,31.68
2023-05-10T10:06:30.561Z,31.45
2023-05-10T10:09:43.725Z,32.65
2023-05-10T10:12:55.974Z,32.52
2023-05-10T10:16:09.988Z,31.77
2023-05-10T10:19:22.340Z,34.96
2023-05-10T10:22:34.484Z,32.51
2023-05-10T10:25:49.031Z,30.85
2023-05-10T10:29:10.582Z,31.25
2023-05-10T10:32:31.860Z,32.07
2023-05-10T10:35:45.249Z,33.38
2023-05-10T10:39:13.940Z,34.11
2023-05-10T10:42:52.632Z,30.29
2023-05-10T10:46:24.479Z,30.43
2023-05-10T10:49:38.101Z,30.83
2023-05-10T10:52:51.669Z,32.79
2023-05-10T10:56:17.573Z,31.26
2023-05-10T10:59:37.655Z,34.17
2023-05-10T11:02:57.932Z,32.65
2023-05-10T11:06:10.576Z,32.47
2023-05-10T11:09:23.003Z,32.53
2023-05-10T11:12:36.704Z,33.24
2023-05-10T11:15:53.556Z,34.23
2023-05-10T11:19:12.393Z,33.42
2023-05-10T11:22:24.918Z,33.70
2023-05-10T11:25:37.250Z,34.78
2023-05-10T11:28:52.916Z,31.99
2023-05-10T11:32:09.427Z,34.63
2023-05-10T11:35:21.098Z,33.98
2023-05-10T11:38:33.947Z,32.66
2023-05-10T11:41:46.661Z,34.75
2023-05-10T11:44:59.040Z,34.92
2023-05-10T11:48:11.928Z,37.37
2023-05-10T11:51:27.393Z,36.55
2023-05-10T11:54:40.128Z,36.69
2023-05-10T11:57:52.848Z,34.83
2023-05-10T12:01:05.799Z,35.85
2023-05-10T12:04:18.269Z,33.63
2023-05-10T12:07:31.020Z,33.18
2023-05-10T12:10:43.730Z,33.72
2023-05-10T12:13:56.242Z,35.48
2023-05-10T12:17:08.550Z,36.52
2023-05-10T12:20:26.312Z,35.94
2023-05-10T12:23:39.026Z,38.07
2023-05-10T12:27:07.896Z,36.10
2023-05-10T12:30:27.560Z,32.69
2023-05-10T12:33:47.741Z,36.10
2023-05-10T12:37:01.036Z,35.89
2023-05-10T12:40:17.022Z,33.39
2023-05-10T12:43:30.025Z,34.15
2023-05-10T12:46:42.284Z,35.41
2023-05-10T12:49:54.432Z,34.77
2023-05-10T12:53:06.764Z,33.29
2023-05-10T12:56:19.026Z,36.64
2023-05-10T12:59:31.364Z,34.96
2023-05-10T13:02:44.246Z,36.75
2023-05-10T13:05:56.930Z,36.99
2023-05-10T13:09:12.193Z,34.45
2023-05-10T13:12:24.680Z,34.22
2023-05-10T13:15:37.381Z,33.92
2023-05-10T13:18:49.949Z,34.59
2023-05-10T13:22:03.638Z,35.69
2023-05-10T13:25:17.728Z,34.79
2023-05-10T13:28:31.423Z,35.76
2023-05-10T13:31:44.788Z,36.29
2023-05-10T13:35:00.161Z,35.95
2023-05-10T13:38:14.920Z,36.07
2023-05-10T13:41:27.795Z,34.32
2023-05-10T13:44:40.471Z,36.78
2023-05-10T13:47:53.349Z,36.18
2023-05-10T13:51:06.075Z,35.78
2023-05-10T13:54:20.775Z,35.52
2023-05-10T13:57:37.058Z,34.34
2023-05-10T14:00:50.311Z,34.78
2023-05-10T14:04:03.261Z,35.40
2023-05-10T14:07:16.009Z,34.25
2023-05-10T14:10:28.617Z,36.08
2023-05-10T14:13:41.477Z,35.38
2023-05-10T14:16:54.331Z,37.63
2023-05-10T14:20:07.531Z,35.15
2023-05-10T14:23:23.197Z,35.02
2023-05-10T14:26:35.954Z,35.75
2023-05-10T14:29:48.865Z,35.85
2023-05-10T14:33:02.413Z,36.42
2023-05-10T14:36:17.085Z,35.95
2023-05-10T14:39:30.834Z,36.19
2023-05-10T14:42:44.545Z,37.45
2023-05-10T14:45:58.124Z,36.69
2023-05-10T14:49:11.844Z,36.81
2023-05-10T14:52:24.778Z,36.69
2023-05-10T14:55:38.206Z,35.82
2023-05-10T14:58:51.023Z,37.44
2023-05-10T15:02:04.540Z,35.97
2023-05-10T15:05:19.211Z,36.97
2023-05-10T15:08:32.247Z,37.99
2023-05-10T15:11:45.701Z,38.55
2023-05-10T15:14:58.072Z,38.48
2023-05-10T15:18:13.910Z,37.89
2023-05-10T15:21:26.871Z,38.48
2023-05-10T15:24:39.634Z,38.59
2023-05-10T15:27:53.656Z,39.24
2023-05-10T15:31:06.991Z,38.50
2023-05-10T15:34:24.621Z,38.92
2023-05-10T15:37:37.470Z,39.60
2023-05-10T15:40:50.163Z,40.49
2023-05-10T15:44:03.129Z,39.17
2023-05-10T15:47:15.668Z,40.79
2023-05-10T15:50:28.751Z,40.03
2023-05-10T15:53:56.444Z,41.33
2023-05-10T15:57:00.291Z,40.46
2023-05-10T16:00:17.052Z,40.67
2023-05-10T16:03:32.985Z,41.57
2023-05-10T16:06:50.976Z,41.61
2023-05-10T16:10:04.544Z,40.64
2023-05-10T16:13:22.791Z,40.62
2023-05-10T16:16:39.964Z,40.24
2023-05-10T16:19:53.757Z,40.35
2023-05-10T16:23:09.928Z,41.26
2023-05-10T16:26:26.020Z,41.38
2023-05-10T16:29:39.521Z,41.20
2023-05-10T16:32:52.546Z,41.50
2023-05-10T16:36:06.584Z,41.37
2023-05-10T16:39:19.484Z,42.27
2023-05-10T16:42:32.482Z,42.35
2023-05-10T16:45:45.187Z,43.02
2023-05-10T16:49:00.016Z,43.64
2023-05-10T16:52:13.109Z,42.98
2023-05-10T16:55:26.624Z,43.23
2023-05-10T16:58:40.311Z,43.07
2023-05-10T17:01:53.537Z,43.70
2023-05-10T17:05:10.289Z,43.52
2023-05-10T17:08:26.379Z,43.93
2023-05-10T17:11:43.492Z,44.58
2023-05-10T17:14:57.083Z,45.64
2023-05-10T17:18:11.915Z,44.59
2023-05-10T17:21:28.330Z,43.79
2023-05-10T17:24:45.484Z,44.67
2023-05-10T17:27:58.609Z,44.60
2023-05-10T17:31:12.027Z,45.15
2023-05-10T17:34:25.963Z,45.85
2023-05-10T17:37:40.035Z,46.30
2023-05-10T17:40:52.963Z,45.74
2023-05-10T17:44:06.218Z,48.19
2023-05-10T17:47:19.267Z,47.22
2023-05-10T17:50:35.778Z,47.40
2023-05-10T17:53:47.665Z,47.51
2023-05-10T17:57:05.767Z,48.39
2023-05-10T18:00:26.500Z,49.84
2023-05-10T18:03:39.711Z,52.25
2023-05-10T18:06:55.468Z,51.63
2023-05-10T18:10:12.833Z,52.90
2023-05-10T18:13:25.824Z,52.81
2023-05-10T18:16:38.436Z,52.92
2023-05-10T18:19:54.287Z,52.83
2023-05-10T18:23:07.371Z,53.98
2023-05-10T18:26:20.372Z,53.78
2023-05-10T18:29:37.517Z,54.55
2023-05-10T18:32:50.843Z,55.04
2023-05-10T18:36:05.243Z,55.81
2023-05-10T18:39:21.298Z,56.48
2023-05-10T18:42:43.045Z,56.73
2023-05-10T18:45:59.165Z,56.28
2023-05-10T18:49:12.284Z,58.12
2023-05-10T18:52:41.326Z,59.44
2023-05-10T18:56:04.201Z,57.97
2023-05-10T18:59:18.467Z,58.66
2023-05-10T19:02:31.502Z,58.31
2023-05-10T19:05:44.642Z,59.94
2023-05-10T19:09:06.560Z,60.15
2023-05-10T19:12:26.198Z,61.54
2023-05-10T19:15:44.272Z,60.71
2023-05-10T19:19:03.042Z,62.40
2023-05-10T19:22:16.202Z,62.65
2023-05-10T19:25:31.211Z,64.44
2023-05-10T19:28:44.924Z,63.63
2023-05-10T19:31:58.732Z,64.41
2023-05-10T19:35:14.882Z,65.44
2023-05-10T19:38:29.921Z,67.32
2023-05-10T19:41:42.491Z,65.77
2023-05-10T19:44:57.560Z,66.33
2023-05-10T19:48:11.604Z,67.20
2023-05-10T19:51:24.269Z,67.93
2023-05-10T19:54:36.430Z,67.53
2023-05-10T19:57:48.615Z,68.10
2023-05-10T20:01:01.136Z,66.62
2023-05-10T20:04:13.453Z,68.95
2023-05-10T20:07:25.933Z,68.11
2023-05-10T20:10:38.390Z,67.37
2023-05-10T20:13:50.986Z,68.35
2023-05-10T20:17:06.389Z,68.20
2023-05-10T20:20:21.432Z,69.80
2023-05-10T20:23:33.658Z,69.55
2023-05-10T20:26:46.625Z,70.17
2023-05-10T20:29:59.255Z,70.05
2023-05-10T20:33:12.612Z,70.86
2023-05-10T20:36:25.607Z,69.54
2023-05-10T20:39:37.744Z,71.53
2023-05-10T20:42:52.219Z,70.83
2023-05-10T20:46:05.636Z,70.95
2023-05-10T20:49:18.298Z,73.56
2023-05-10T20:52:30.655Z,74.35
2023-05-10T20:55:43.066Z,74.09
2023-05-10T20:58:55.054Z,73.53
2023-05-10T21:02:07.080Z,72.89
2023-05-10T21:05:19.536Z,76.07
2023-05-10T21:08:31.993Z,73.92
2023-05-10T21:11:44.518Z,73.63
2023-05-10T21:14:56.890Z,73.53
2023-05-10T21:18:09.902Z,75.40
2023-05-10T21:21:22.325Z,76.54
2023-05-10T21:24:35.381Z,74.57
2023-05-10T21:27:47.392Z,75.50
2023-05-10T21:30:59.670Z,74.62
2023-05-10T21:34:14.147Z,76.18
2023-05-10T21:37:26.346Z,76.75
2023-05-10T21:40:40.409Z,78.83
2023-05-10T21:43:52.607Z,77.64
2023-05-10T21:47:05.018Z,77.16
2023-05-10T21:50:18.829Z,77.21
2023-05-10T21:53:31.694Z,77.39
2023-05-10T21:56:44.722Z,77.56
2023-05-10T21:59:57.128Z,78.82
2023-05-10T22:03:09.476Z,81.08
2023-05-10T22:06:22.039Z,82.96
2023-05-10T22:09:34.548Z,81.94
2023-05-10T22:12:46.834Z,83.16
2023-05-10T22:15:59.098Z,84.00
2023-05-10T22:19:11.526Z,80.16
2023-05-10T22:22:23.596Z,80.08
2023-05-10T22:25:36.061Z,81.59
2023-05-10T22:28:48.506Z,84.00
2023-05-10T22:32:03.179Z,81.04
2023-05-10T22:35:16.703Z,81.62
2023-05-10T22:38:29.043Z,82.85
2023-05-10T22:41:42.038Z,83.96
2023-05-10T22:44:54.193Z,82.18
2023-05-10T22:48:09.662Z,83.81
2023-05-10T22:51:21.730Z,83.30
2023-05-10T22:54:36.189Z,84.11
2023-05-10T22:57:48.630Z,82.67
2023-05-10T23:01:01.318Z,84.50
2023-05-10T23:04:13.517Z,85.49
2023-05-10T23:07:25.759Z,85.63
2023-05-10T23:10:38.705Z,86.18
2023-05-10T23:13:51.129Z,84.47
2023-05-10T23:17:03.249Z,86.19
2023-05-10T23:20:19.105Z,85.22
2023-05-10T23:23:33.075Z,86.09
2023-05-10T23:26:46.702Z,85.51
2023-05-10T23:29:59.487Z,85.57
2023-05-10T23:33:14.236Z,88.42
2023-05-10T23:36:27.124Z,88.23
2023-05-10T23:39:39.266Z,87.84
2023-05-10T23:42:51.897Z,91.30
2023-05-10T23:46:05.522Z,90.26
2023-05-10T23:49:17.841Z,91.20
2023-05-10T23:52:30.166Z,91.20
2023-05-10T23:55:42.671Z,91.76
2023-05-10T23:58:55.008Z,91.07
